Stations météo

réclame
Mon MeteoGroup
St.Catherine`s Point, Grande-Bretagne (3866): Température de l'air & dewpoint: 14.10.2020 18:00:00 - 20.10.2020 18:00:00 (BST)St.Catherine`s Point, Grande-Bretagne (3866): Vitesse du vent & gusts: 14.10.2020 18:00:00 - 20.10.2020 18:00:00 (BST)St.Catherine`s Point, Grande-Bretagne (3866): Direction du vent: 14.10.2020 18:00:00 - 20.10.2020 18:00:00 (BST)St.Catherine`s Point, Grande-Bretagne (3866): reduced air pressure: 14.10.2020 18:00:00 - 20.10.2020 18:00:00 (BST)St.Catherine`s Point, Grande-Bretagne (3866): Quantités de précipitations: 14.10.2020 18:00:00 - 20.10.2020 18:00:00 (BST)
Date & Time tt [°C] td [°C] ff [km/h] ff [knt] fx [km/h] fx [knt] dd ppp [hPa] rr [mm]
20.10.2020 18:00:00 15,3 13,5 9 5 - - SSE 1000,5 0,0
20.10.2020 17:00:00 16,0 13,2 8 4 - - S 1000,7 0,0
20.10.2020 16:00:00 16,7 13,0 16 9 - - SSW 1001,4 0,0
20.10.2020 15:00:00 16,3 13,3 18 10 - - SSW 1001,5 0,0
20.10.2020 14:00:00 16,1 13,4 15 8 - - SSW 1001,8 0,0
20.10.2020 13:00:00 15,8 13,7 18 10 - - SSW 1002,4 0,0
20.10.2020 12:00:00 15,7 13,5 18 10 - - SSW 1002,0 0,0
20.10.2020 11:00:00 15,3 13,3 18 10 - - SSW 1002,0 0,0
20.10.2020 10:00:00 15,0 13,0 22 12 - - SSW 1001,7 0,0
20.10.2020 09:00:00 15,1 12,9 18 10 - - SSW 1001,7 0,0
20.10.2020 08:00:00 14,8 12,6 26 14 - - SSW 1000,9 0,0
20.10.2020 07:00:00 15,1 12,2 24 13 - - SSW 1000,6 0,2
20.10.2020 06:00:00 14,9 12,1 21 11 - - S 1000,9 0,0
20.10.2020 05:00:00 14,6 12,1 22 12 - - SSE 1000,8 0,2
20.10.2020 04:00:00 14,4 11,6 22 12 - - S 1001,3 0,4
20.10.2020 03:00:00 13,9 12,0 21 11 - - SSE 1002,2 0,6
20.10.2020 02:00:00 14,0 10,7 22 12 - - S 1002,9 0,6
20.10.2020 01:00:00 14,6 10,2 18 10 - - S 1003,9 0,0
20.10.2020 00:00:00 14,7 10,0 16 9 - - SSE 1004,3 0,0
19.10.2020 23:00:00 14,6 9,6 21 11 - - SSE 1005,1 0,0
19.10.2020 22:00:00 14,1 9,3 29 16 50 27 SE 1005,8 0,0
19.10.2020 21:00:00 14,0 9,5 31 17 50 27 SE 1006,6 0,0
19.10.2020 20:00:00 14,2 8,8 31 17 48 26 ESE 1007,4 0,0
19.10.2020 19:00:00 14,0 8,8 28 15 - - ESE 1008,4 0,0
19.10.2020 18:00:00 14,0 9,1 29 16 46 25 ESE 1009,0 0,0
19.10.2020 17:00:00 14,0 8,5 26 14 46 25 ESE 1010,0 0,0
19.10.2020 16:00:00 14,2 9,0 31 17 - - SE 1011,3 0,0
19.10.2020 15:00:00 13,6 8,3 29 16 - - SE 1012,6 0,0
19.10.2020 14:00:00 13,6 7,9 28 15 - - SE 1013,5 0,0
19.10.2020 13:00:00 13,8 7,5 24 13 - - SE 1015,0 0,0
19.10.2020 12:00:00 13,7 7,8 18 10 - - SSE 1016,0 0,0
19.10.2020 11:00:00 13,4 7,6 16 9 - - SSE 1016,6 0,0
19.10.2020 10:00:00 13,5 6,9 15 8 - - S 1017,3 0,0
19.10.2020 09:00:00 13,0 7,9 13 7 - - S 1017,6 0,0
19.10.2020 08:00:00 12,7 7,5 13 7 - - S 1017,6 0,0
19.10.2020 07:00:00 12,7 7,4 15 8 - - SSE 1018,0 0,0
19.10.2020 06:00:00 12,7 7,0 13 7 - - S 1018,7 0,0
19.10.2020 05:00:00 12,7 7,0 16 9 - - S 1019,1 0,0
19.10.2020 04:00:00 12,8 6,9 16 9 - - SSW 1019,5 0,0
19.10.2020 03:00:00 13,2 7,4 13 7 - - SSE 1020,3 0,0
19.10.2020 02:00:00 12,7 7,2 13 7 - - SSE 1021,0 0,0
19.10.2020 01:00:00 12,8 7,3 9 5 - - S 1021,6 0,0
19.10.2020 00:00:00 12,4 6,5 9 5 - - S 1022,1 0,0
18.10.2020 23:00:00 12,6 6,4 9 5 - - SSE 1022,3 0,0
18.10.2020 22:00:00 10,8 6,2 4 2 - - ESE 1022,6 0,0
18.10.2020 21:00:00 11,0 7,2 2 1 - - ENE 1022,7 0,0
18.10.2020 20:00:00 10,3 7,5 8 4 - - ENE 1023,0 0,0
18.10.2020 19:00:00 10,9 7,8 5 3 - - ENE 1023,0 0,0
18.10.2020 18:00:00 11,7 7,7 4 2 - - ENE 1022,9 0,0
18.10.2020 17:00:00 12,2 8,0 4 2 - - E 1022,8 0,0
18.10.2020 16:00:00 12,2 7,2 4 2 - - SSE 1023,1 0,0
18.10.2020 15:00:00 12,5 6,9 5 3 - - SE 1023,5 0,0
18.10.2020 14:00:00 12,7 5,5 4 2 - - S 1023,8 0,0
18.10.2020 13:00:00 13,1 7,1 4 2 - - ESE 1024,1 0,0
18.10.2020 12:00:00 11,7 6,3 8 4 - - NNE 1024,7 0,0
18.10.2020 11:00:00 11,2 6,8 8 4 - - NNE 1024,6 0,0
18.10.2020 10:00:00 10,1 7,0 11 6 - - NNE 1024,6 0,0
18.10.2020 09:00:00 10,1 6,0 11 6 - - N 1024,4 0,0
18.10.2020 08:00:00 9,7 5,3 13 7 - - NNE 1024,0 0,0
18.10.2020 07:00:00 9,2 5,6 9 5 - - NNE 1023,6 0,0
18.10.2020 06:00:00 8,8 5,7 11 6 - - NE 1023,2 0,0
18.10.2020 05:00:00 10,3 6,1 13 7 - - NE 1023,1 0,0
18.10.2020 04:00:00 10,2 6,0 13 7 - - NE 1023,2 0,0
18.10.2020 03:00:00 10,0 6,0 13 7 - - NE 1023,3 0,0
18.10.2020 02:00:00 9,9 6,8 9 5 - - ENE 1023,2 0,0
18.10.2020 01:00:00 10,3 6,8 9 5 - - NE 1023,3 0,0
18.10.2020 00:00:00 10,6 7,1 15 8 - - NNE 1023,2 0,0
17.10.2020 23:00:00 10,7 7,3 15 8 - - NNE 1023,0 0,0
17.10.2020 22:00:00 10,8 7,4 11 6 - - NNE 1022,8 0,0
17.10.2020 21:00:00 11,2 7,5 11 6 - - NE 1022,6 0,0
17.10.2020 20:00:00 11,2 7,6 11 6 - - NNE 1022,4 0,0
17.10.2020 19:00:00 11,2 6,8 13 7 - - NNE 1022,0 0,0
17.10.2020 18:00:00 11,1 7,0 8 4 - - ENE 1021,5 0,0
17.10.2020 17:00:00 12,0 7,6 13 7 - - E 1021,3 0,0
17.10.2020 16:00:00 12,3 7,7 16 9 - - E 1021,3 0,0
17.10.2020 15:00:00 12,0 7,9 18 10 - - E 1021,4 0,0
17.10.2020 14:00:00 12,6 8,3 21 11 - - E 1021,4 0,0
17.10.2020 13:00:00 12,1 6,7 18 10 - - E 1021,7 0,0
17.10.2020 12:00:00 11,3 5,7 15 8 - - E 1021,9 0,0
17.10.2020 11:00:00 11,3 6,4 11 6 - - ENE 1021,7 0,0
17.10.2020 10:00:00 11,7 7,7 15 8 - - ENE 1021,5 0,0
17.10.2020 09:00:00 9,4 7,5 15 8 - - NE 1021,5 0,0
17.10.2020 08:00:00 9,1 7,6 13 7 - - ENE 1021,3 0,0
17.10.2020 07:00:00 9,5 7,8 16 9 - - NE 1021,1 0,0
17.10.2020 06:00:00 9,8 7,7 15 8 - - NNE 1021,3 0,0
17.10.2020 05:00:00 9,9 7,9 15 8 - - NNE 1021,3 0,0
17.10.2020 04:00:00 9,9 7,4 16 9 - - NNE 1021,4 0,0
17.10.2020 03:00:00 10,1 6,9 15 8 - - NNE 1021,8 0,0
17.10.2020 02:00:00 10,0 6,3 13 7 - - NNE 1022,2 0,0
17.10.2020 01:00:00 10,1 5,8 15 8 - - NNE 1022,4 0,0
17.10.2020 00:00:00 10,3 5,1 13 7 - - NNE 1022,7 0,0
16.10.2020 23:00:00 10,2 5,4 9 5 - - NE 1023,2 0,0
16.10.2020 22:00:00 10,6 5,9 13 7 - - ENE 1023,5 0,0
16.10.2020 21:00:00 10,5 5,7 11 6 - - NE 1023,3 0,0
16.10.2020 20:00:00 10,7 5,7 13 7 - - NE 1023,5 0,0
16.10.2020 19:00:00 10,2 5,0 11 6 - - NE 1023,4 0,0
16.10.2020 18:00:00 11,0 5,4 11 6 - - ENE 1023,0 0,0
16.10.2020 17:00:00 11,8 6,5 15 8 - - E 1022,9 0,0
16.10.2020 16:00:00 11,9 6,4 16 9 - - E 1023,1 0,0
16.10.2020 15:00:00 12,7 6,9 21 11 - - E 1023,5 0,0
16.10.2020 14:00:00 12,8 6,5 22 12 - - E 1023,6 0,0
16.10.2020 13:00:00 13,0 6,7 18 10 - - E 1023,8 0,0
16.10.2020 12:00:00 12,1 6,7 16 9 - - ENE 1024,2 0,0
16.10.2020 11:00:00 11,0 7,1 18 10 - - NNE 1024,4 0,0
16.10.2020 10:00:00 9,0 6,4 21 11 - - NNE 1024,4 0,0
16.10.2020 09:00:00 7,5 6,1 24 13 - - NNE 1024,4 0,0
16.10.2020 08:00:00 6,7 5,6 26 14 - - NNE 1024,1 0,0
16.10.2020 07:00:00 6,8 5,4 24 13 - - NNE 1024,0 0,0
16.10.2020 06:00:00 7,1 5,7 24 13 - - NNE 1023,9 0,0
16.10.2020 05:00:00 7,2 5,8 22 12 - - NNE 1024,1 0,0
16.10.2020 04:00:00 7,2 5,6 21 11 - - NNE 1024,1 0,0
16.10.2020 03:00:00 7,3 5,8 16 9 - - NNE 1024,7 0,0
16.10.2020 02:00:00 7,6 5,6 8 4 - - NNE 1024,9 0,0
16.10.2020 01:00:00 7,7 5,8 13 7 - - N 1024,8 0,0
16.10.2020 00:00:00 8,1 6,0 11 6 - - N 1024,8 0,0
15.10.2020 23:00:00 8,5 6,2 9 5 - - NNE 1024,9 0,0
15.10.2020 22:00:00 8,8 6,6 5 3 - - NNE 1024,9 0,0
15.10.2020 21:00:00 9,2 6,6 4 2 - - NW 1024,6 0,0
15.10.2020 20:00:00 10,1 6,6 5 3 - - NNE 1024,6 0,0
15.10.2020 19:00:00 10,5 6,4 8 4 - - NW 1024,3 0,0
15.10.2020 18:00:00 10,7 5,2 8 4 - - NE 1023,7 0,0
15.10.2020 17:00:00 12,6 5,7 8 4 - - ENE 1023,3 0,0
15.10.2020 16:00:00 13,3 6,3 11 6 - - NNE 1023,3 0,0
15.10.2020 15:00:00 13,1 6,0 15 8 - - ENE 1023,5 0,0
15.10.2020 14:00:00 13,4 6,8 15 8 - - NE 1023,6 0,0
15.10.2020 13:00:00 12,9 6,6 18 10 - - ENE 1024,0 0,0
15.10.2020 12:00:00 12,6 7,2 13 7 - - NE 1023,9 0,0
15.10.2020 11:00:00 11,4 7,5 15 8 - - ENE 1024,0 0,0
15.10.2020 10:00:00 9,7 7,0 11 6 - - NE 1024,1 0,0
15.10.2020 09:00:00 8,4 6,5 15 8 - - NE 1023,6 0,0
15.10.2020 08:00:00 7,4 5,8 15 8 - - NE 1023,2 0,0
15.10.2020 07:00:00 7,5 5,9 15 8 - - NE 1022,8 0,0
15.10.2020 06:00:00 7,6 6,0 8 4 - - NE 1022,6 0,0
15.10.2020 05:00:00 7,7 6,1 5 3 - - NE 1022,4 0,0
15.10.2020 04:00:00 8,0 6,2 8 4 - - ENE 1022,4 0,0
15.10.2020 03:00:00 7,8 5,9 8 4 - - ENE 1022,8 0,0
15.10.2020 02:00:00 8,3 6,0 5 3 - - ENE 1022,7 0,0
15.10.2020 01:00:00 8,9 6,3 8 4 - - ENE 1022,6 0,0
15.10.2020 00:00:00 9,0 6,1 5 3 - - ENE 1022,5 0,0
14.10.2020 23:00:00 9,5 6,7 13 7 - - ENE 1022,4 0,0
14.10.2020 22:00:00 10,3 7,4 16 9 - - NE 1022,2 0,0
14.10.2020 21:00:00 10,6 7,2 15 8 - - ENE 1021,8 0,0
14.10.2020 20:00:00 11,2 6,8 9 5 - - ENE 1021,7 0,0
14.10.2020 19:00:00 11,5 6,2 13 7 - - NE 1021,4 0,0
14.10.2020 18:00:00 12,2 7,4 8 4 - - ENE 1020,8 0,0

tt = Température de l'air
td = dewpoint
ff = Vitesse du vent
fx = gusts
dd = Direction du vent
ppp = reduced air pressure
rr = Quantités de précipitations

stations d'obs. à proximité